Tufts University, Massachusetts
Current Conditions -  °F | °C
As of 3:54 AM on Wednesday 22 Oct 2014 (Local Time) from KBOS Reporting Station
Overcast Overcast  
Wind Chill: 51°   Ceiling: 500
Heat Index: 51°   Visibility: 10mi
Dew Point: 49°   Wind: 14mph
Humidity: 92%   Direction: 360°N
Pressure: 29.97"   Gusts: NA
Location:  42.4184°N, 71.1069°W
Report Text: KBOS 220754Z 36012KT 10SM OVC005 11/09 A2997 RMK AO2 RAE0655 SLP149 T01060094
Loading
Personal Weather Stations






























Interactive Weather Map
Tropical Storm Tracking
New forecast layout! Learn more

10-Day Weather Forecast

Advertisements
Track Severe Weather on mobile